sensor_id;sensor_type;location;lat;lon;timestamp;temperature;humidity
23137;DHT22;11737;50.558;7.258;2022-07-23T00:01:56;21.50;99.30
23137;DHT22;11737;50.558;7.258;2022-07-23T00:04:24;21.50;99.40
23137;DHT22;11737;50.558;7.258;2022-07-23T00:06:51;21.50;99.00
23137;DHT22;11737;50.558;7.258;2022-07-23T00:09:19;21.40;99.60
23137;DHT22;11737;50.558;7.258;2022-07-23T00:11:46;21.40;99.00
23137;DHT22;11737;50.558;7.258;2022-07-23T00:14:14;21.40;98.60
23137;DHT22;11737;50.558;7.258;2022-07-23T00:16:41;21.40;98.90
23137;DHT22;11737;50.558;7.258;2022-07-23T00:19:09;21.40;99.00
23137;DHT22;11737;50.558;7.258;2022-07-23T00:21:36;21.50;98.90
23137;DHT22;11737;50.558;7.258;2022-07-23T00:24:04;21.50;99.60
23137;DHT22;11737;50.558;7.258;2022-07-23T00:26:32;21.50;99.60
23137;DHT22;11737;50.558;7.258;2022-07-23T00:28:59;21.50;99.40
23137;DHT22;11737;50.558;7.258;2022-07-23T00:31:27;21.50;99.40
23137;DHT22;11737;50.558;7.258;2022-07-23T00:33:54;21.50;99.10
23137;DHT22;11737;50.558;7.258;2022-07-23T00:36:24;21.50;99.40
23137;DHT22;11737;50.558;7.258;2022-07-23T00:38:51;21.50;99.50
23137;DHT22;11737;50.558;7.258;2022-07-23T00:41:20;21.50;99.70
23137;DHT22;11737;50.558;7.258;2022-07-23T00:43:51;21.50;99.50
23137;DHT22;11737;50.558;7.258;2022-07-23T00:46:24;21.50;99.00
23137;DHT22;11737;50.558;7.258;2022-07-23T00:48:51;21.40;99.60
23137;DHT22;11737;50.558;7.258;2022-07-23T00:51:19;21.40;99.50
23137;DHT22;11737;50.558;7.258;2022-07-23T00:53:47;21.40;99.80
23137;DHT22;11737;50.558;7.258;2022-07-23T00:56:16;21.40;99.50
23137;DHT22;11737;50.558;7.258;2022-07-23T00:58:43;21.40;99.20
23137;DHT22;11737;50.558;7.258;2022-07-23T01:01:12;21.40;99.00
23137;DHT22;11737;50.558;7.258;2022-07-23T01:03:41;21.30;99.20
23137;DHT22;11737;50.558;7.258;2022-07-23T01:06:08;21.30;99.10
23137;DHT22;11737;50.558;7.258;2022-07-23T01:08:37;21.20;98.90
23137;DHT22;11737;50.558;7.258;2022-07-23T01:11:04;21.10;99.20
23137;DHT22;11737;50.558;7.258;2022-07-23T01:13:32;21.10;99.40
23137;DHT22;11737;50.558;7.258;2022-07-23T01:16:00;21.00;99.60
23137;DHT22;11737;50.558;7.258;2022-07-23T01:18:28;21.00;99.80
23137;DHT22;11737;50.558;7.258;2022-07-23T01:20:56;20.90;99.80
23137;DHT22;11737;50.558;7.258;2022-07-23T01:23:42;20.80;99.90
23137;DHT22;11737;50.558;7.258;2022-07-23T01:26:10;20.80;99.90
23137;DHT22;11737;50.558;7.258;2022-07-23T01:28:37;20.90;99.90
23137;DHT22;11737;50.558;7.258;2022-07-23T01:31:05;20.90;99.70
23137;DHT22;11737;50.558;7.258;2022-07-23T01:33:32;20.80;99.90
23137;DHT22;11737;50.558;7.258;2022-07-23T01:36:00;20.80;99.90
23137;DHT22;11737;50.558;7.258;2022-07-23T01:38:27;20.80;99.90
23137;DHT22;11737;50.558;7.258;2022-07-23T01:40:55;20.80;99.90
23137;DHT22;11737;50.558;7.258;2022-07-23T01:43:22;20.80;99.80
23137;DHT22;11737;50.558;7.258;2022-07-23T01:45:50;20.80;99.90
23137;DHT22;11737;50.558;7.258;2022-07-23T01:48:17;20.80;99.90
23137;DHT22;11737;50.558;7.258;2022-07-23T01:50:47;20.80;99.90
23137;DHT22;11737;50.558;7.258;2022-07-23T01:53:15;20.70;99.90
23137;DHT22;11737;50.558;7.258;2022-07-23T01:55:43;20.60;99.90
23137;DHT22;11737;50.558;7.258;2022-07-23T01:58:10;20.60;99.90
23137;DHT22;11737;50.558;7.258;2022-07-23T02:00:38;20.60;99.90
23137;DHT22;11737;50.558;7.258;2022-07-23T02:03:06;20.60;99.90
23137;DHT22;11737;50.558;7.258;2022-07-23T02:05:33;20.70;99.90
23137;DHT22;11737;50.558;7.258;2022-07-23T02:08:01;20.70;99.90
23137;DHT22;11737;50.558;7.258;2022-07-23T02:10:29;20.60;99.90
23137;DHT22;11737;50.558;7.258;2022-07-23T02:12:56;20.60;99.90
23137;DHT22;11737;50.558;7.258;2022-07-23T02:15:24;20.50;99.90
23137;DHT22;11737;50.558;7.258;2022-07-23T02:17:52;20.50;99.90
23137;DHT22;11737;50.558;7.258;2022-07-23T02:20:19;20.50;99.90
23137;DHT22;11737;50.558;7.258;2022-07-23T02:22:46;20.50;99.90
23137;DHT22;11737;50.558;7.258;2022-07-23T02:25:14;20.50;99.90
23137;DHT22;11737;50.558;7.258;2022-07-23T02:27:42;20.40;99.90
23137;DHT22;11737;50.558;7.258;2022-07-23T02:30:10;20.30;99.90
23137;DHT22;11737;50.558;7.258;2022-07-23T02:32:38;20.30;99.90
23137;DHT22;11737;50.558;7.258;2022-07-23T02:35:06;20.30;99.90
23137;DHT22;11737;50.558;7.258;2022-07-23T02:37:34;20.20;99.90
23137;DHT22;11737;50.558;7.258;2022-07-23T02:40:02;20.20;99.90
23137;DHT22;11737;50.558;7.258;2022-07-23T02:42:29;20.00;99.90
23137;DHT22;11737;50.558;7.258;2022-07-23T02:44:57;20.00;99.90
23137;DHT22;11737;50.558;7.258;2022-07-23T02:47:24;19.90;99.90
23137;DHT22;11737;50.558;7.258;2022-07-23T02:49:52;19.80;99.90
23137;DHT22;11737;50.558;7.258;2022-07-23T02:52:19;19.80;99.90
23137;DHT22;11737;50.558;7.258;2022-07-23T02:54:47;19.80;99.90
23137;DHT22;11737;50.558;7.258;2022-07-23T02:57:15;19.80;99.90
23137;DHT22;11737;50.558;7.258;2022-07-23T02:59:42;19.70;99.90
23137;DHT22;11737;50.558;7.258;2022-07-23T03:02:10;19.60;99.90
23137;DHT22;11737;50.558;7.258;2022-07-23T03:04:37;19.60;99.90
23137;DHT22;11737;50.558;7.258;2022-07-23T03:07:05;19.60;99.90
23137;DHT22;11737;50.558;7.258;2022-07-23T03:09:32;19.60;99.90
23137;DHT22;11737;50.558;7.258;2022-07-23T03:12:00;19.60;99.90
23137;DHT22;11737;50.558;7.258;2022-07-23T03:14:27;19.50;99.90
23137;DHT22;11737;50.558;7.258;2022-07-23T03:16:55;19.60;99.90
23137;DHT22;11737;50.558;7.258;2022-07-23T03:19:22;19.50;99.90
23137;DHT22;11737;50.558;7.258;2022-07-23T03:21:50;19.50;99.90
23137;DHT22;11737;50.558;7.258;2022-07-23T03:24:17;19.50;99.90
23137;DHT22;11737;50.558;7.258;2022-07-23T03:26:45;19.50;99.90
23137;DHT22;11737;50.558;7.258;2022-07-23T03:29:13;19.40;99.90
23137;DHT22;11737;50.558;7.258;2022-07-23T03:31:40;19.40;99.90
23137;DHT22;11737;50.558;7.258;2022-07-23T03:34:08;19.40;99.90
23137;DHT22;11737;50.558;7.258;2022-07-23T03:36:35;19.40;99.90
23137;DHT22;11737;50.558;7.258;2022-07-23T03:39:03;19.40;99.90
23137;DHT22;11737;50.558;7.258;2022-07-23T03:41:30;19.30;99.90
23137;DHT22;11737;50.558;7.258;2022-07-23T03:43:58;19.30;99.90
23137;DHT22;11737;50.558;7.258;2022-07-23T03:46:25;19.30;99.90
23137;DHT22;11737;50.558;7.258;2022-07-23T03:48:53;19.30;99.90
23137;DHT22;11737;50.558;7.258;2022-07-23T03:51:20;19.30;99.90
23137;DHT22;11737;50.558;7.258;2022-07-23T03:53:48;19.30;99.90
23137;DHT22;11737;50.558;7.258;2022-07-23T03:56:15;19.30;99.90
23137;DHT22;11737;50.558;7.258;2022-07-23T03:58:43;19.30;99.90
23137;DHT22;11737;50.558;7.258;2022-07-23T04:01:11;19.30;99.90
23137;DHT22;11737;50.558;7.258;2022-07-23T04:03:38;19.20;99.90
23137;DHT22;11737;50.558;7.258;2022-07-23T04:06:06;19.20;99.90
23137;DHT22;11737;50.558;7.258;2022-07-23T04:08:34;19.10;99.90
23137;DHT22;11737;50.558;7.258;2022-07-23T04:11:02;19.10;99.90
23137;DHT22;11737;50.558;7.258;2022-07-23T04:13:30;19.00;99.90
23137;DHT22;11737;50.558;7.258;2022-07-23T04:15:59;19.00;99.90
23137;DHT22;11737;50.558;7.258;2022-07-23T04:18:26;18.90;99.90
23137;DHT22;11737;50.558;7.258;2022-07-23T04:20:54;18.90;99.90
23137;DHT22;11737;50.558;7.258;2022-07-23T04:23:22;19.00;99.90
23137;DHT22;11737;50.558;7.258;2022-07-23T04:25:49;19.00;99.90
23137;DHT22;11737;50.558;7.258;2022-07-23T04:28:17;19.10;99.90
23137;DHT22;11737;50.558;7.258;2022-07-23T04:30:44;19.10;99.90
23137;DHT22;11737;50.558;7.258;2022-07-23T04:33:12;19.10;99.90
23137;DHT22;11737;50.558;7.258;2022-07-23T04:35:39;19.10;99.90
23137;DHT22;11737;50.558;7.258;2022-07-23T04:38:07;19.10;99.90
23137;DHT22;11737;50.558;7.258;2022-07-23T04:40:35;19.10;99.90
23137;DHT22;11737;50.558;7.258;2022-07-23T04:43:03;19.20;99.90
23137;DHT22;11737;50.558;7.258;2022-07-23T04:45:31;19.30;99.90
23137;DHT22;11737;50.558;7.258;2022-07-23T04:47:59;19.30;99.90
23137;DHT22;11737;50.558;7.258;2022-07-23T04:50:27;19.40;99.90
23137;DHT22;11737;50.558;7.258;2022-07-23T04:52:55;19.40;99.90
23137;DHT22;11737;50.558;7.258;2022-07-23T04:55:22;19.40;99.90
23137;DHT22;11737;50.558;7.258;2022-07-23T04:57:50;19.40;99.90
23137;DHT22;11737;50.558;7.258;2022-07-23T05:00:17;19.50;99.90
23137;DHT22;11737;50.558;7.258;2022-07-23T05:02:45;19.50;99.90
23137;DHT22;11737;50.558;7.258;2022-07-23T05:05:12;19.60;99.90
23137;DHT22;11737;50.558;7.258;2022-07-23T05:07:40;19.70;99.90
23137;DHT22;11737;50.558;7.258;2022-07-23T05:10:07;19.70;99.90
23137;DHT22;11737;50.558;7.258;2022-07-23T05:12:35;19.80;99.90
23137;DHT22;11737;50.558;7.258;2022-07-23T05:15:03;19.80;99.90
23137;DHT22;11737;50.558;7.258;2022-07-23T05:17:30;19.90;99.90
23137;DHT22;11737;50.558;7.258;2022-07-23T05:19:58;20.00;99.90
23137;DHT22;11737;50.558;7.258;2022-07-23T05:22:25;20.20;99.90
23137;DHT22;11737;50.558;7.258;2022-07-23T05:24:53;20.30;99.90
23137;DHT22;11737;50.558;7.258;2022-07-23T05:27:20;20.40;99.90
23137;DHT22;11737;50.558;7.258;2022-07-23T05:29:48;20.60;99.90
23137;DHT22;11737;50.558;7.258;2022-07-23T05:32:15;20.70;99.90
23137;DHT22;11737;50.558;7.258;2022-07-23T05:34:43;20.80;99.90
23137;DHT22;11737;50.558;7.258;2022-07-23T05:37:10;20.80;99.90
23137;DHT22;11737;50.558;7.258;2022-07-23T05:39:38;20.90;99.90
23137;DHT22;11737;50.558;7.258;2022-07-23T05:42:05;20.90;99.90
23137;DHT22;11737;50.558;7.258;2022-07-23T05:44:34;20.90;99.90
23137;DHT22;11737;50.558;7.258;2022-07-23T05:47:02;20.90;99.90
23137;DHT22;11737;50.558;7.258;2022-07-23T05:49:29;21.00;99.90
23137;DHT22;11737;50.558;7.258;2022-07-23T05:51:57;21.00;99.90
23137;DHT22;11737;50.558;7.258;2022-07-23T05:54:25;21.00;99.90
23137;DHT22;11737;50.558;7.258;2022-07-23T05:56:53;21.10;99.90
23137;DHT22;11737;50.558;7.258;2022-07-23T05:59:20;21.00;99.90
23137;DHT22;11737;50.558;7.258;2022-07-23T06:01:48;21.10;99.90
23137;DHT22;11737;50.558;7.258;2022-07-23T06:04:15;21.20;99.90
23137;DHT22;11737;50.558;7.258;2022-07-23T06:06:43;21.30;99.90
23137;DHT22;11737;50.558;7.258;2022-07-23T06:09:10;21.20;99.90
23137;DHT22;11737;50.558;7.258;2022-07-23T06:11:40;21.20;99.90
23137;DHT22;11737;50.558;7.258;2022-07-23T06:14:07;21.20;99.90
23137;DHT22;11737;50.558;7.258;2022-07-23T06:16:35;21.20;99.90
23137;DHT22;11737;50.558;7.258;2022-07-23T06:19:02;21.10;99.90
23137;DHT22;11737;50.558;7.258;2022-07-23T06:21:30;21.10;99.90
23137;DHT22;11737;50.558;7.258;2022-07-23T06:23:57;21.10;99.90
23137;DHT22;11737;50.558;7.258;2022-07-23T06:26:25;21.20;99.90
23137;DHT22;11737;50.558;7.258;2022-07-23T06:28:52;21.20;99.90
23137;DHT22;11737;50.558;7.258;2022-07-23T06:31:20;21.20;99.90
23137;DHT22;11737;50.558;7.258;2022-07-23T06:33:47;21.20;99.90
23137;DHT22;11737;50.558;7.258;2022-07-23T06:36:15;21.20;99.90
23137;DHT22;11737;50.558;7.258;2022-07-23T06:38:42;21.20;99.90
23137;DHT22;11737;50.558;7.258;2022-07-23T06:41:10;21.20;99.90
23137;DHT22;11737;50.558;7.258;2022-07-23T06:43:38;21.20;99.90
23137;DHT22;11737;50.558;7.258;2022-07-23T06:46:05;21.20;99.90
23137;DHT22;11737;50.558;7.258;2022-07-23T06:48:33;21.10;99.90
23137;DHT22;11737;50.558;7.258;2022-07-23T06:51:03;21.10;99.90
23137;DHT22;11737;50.558;7.258;2022-07-23T06:53:31;21.10;99.90
23137;DHT22;11737;50.558;7.258;2022-07-23T06:55:58;21.20;99.90
23137;DHT22;11737;50.558;7.258;2022-07-23T06:58:26;21.20;99.90
23137;DHT22;11737;50.558;7.258;2022-07-23T07:00:54;21.20;99.90
23137;DHT22;11737;50.558;7.258;2022-07-23T07:03:23;21.40;99.90
23137;DHT22;11737;50.558;7.258;2022-07-23T07:05:51;21.50;99.90
23137;DHT22;11737;50.558;7.258;2022-07-23T07:08:19;21.60;99.90
23137;DHT22;11737;50.558;7.258;2022-07-23T07:10:47;21.70;99.90
23137;DHT22;11737;50.558;7.258;2022-07-23T07:13:14;21.70;99.90
23137;DHT22;11737;50.558;7.258;2022-07-23T07:15:42;21.80;99.90
23137;DHT22;11737;50.558;7.258;2022-07-23T07:18:09;22.00;99.90
23137;DHT22;11737;50.558;7.258;2022-07-23T07:20:37;22.00;99.90
23137;DHT22;11737;50.558;7.258;2022-07-23T07:23:04;22.10;99.90
23137;DHT22;11737;50.558;7.258;2022-07-23T07:25:32;22.20;99.90
23137;DHT22;11737;50.558;7.258;2022-07-23T07:27:59;22.30;99.90
23137;DHT22;11737;50.558;7.258;2022-07-23T07:30:27;22.40;99.90
23137;DHT22;11737;50.558;7.258;2022-07-23T07:32:54;22.40;99.90
23137;DHT22;11737;50.558;7.258;2022-07-23T07:35:22;22.50;99.90
23137;DHT22;11737;50.558;7.258;2022-07-23T07:37:49;22.60;99.90
23137;DHT22;11737;50.558;7.258;2022-07-23T07:40:17;22.70;99.90
23137;DHT22;11737;50.558;7.258;2022-07-23T07:42:46;22.80;99.70
23137;DHT22;11737;50.558;7.258;2022-07-23T07:45:13;22.80;99.80
23137;DHT22;11737;50.558;7.258;2022-07-23T07:47:42;22.90;99.60
23137;DHT22;11737;50.558;7.258;2022-07-23T07:50:09;23.00;99.30
23137;DHT22;11737;50.558;7.258;2022-07-23T07:52:37;23.10;99.10
23137;DHT22;11737;50.558;7.258;2022-07-23T07:55:06;23.10;98.40
23137;DHT22;11737;50.558;7.258;2022-07-23T07:57:35;23.20;97.90
23137;DHT22;11737;50.558;7.258;2022-07-23T08:00:07;23.20;97.90
23137;DHT22;11737;50.558;7.258;2022-07-23T08:02:52;23.30;97.60
23137;DHT22;11737;50.558;7.258;2022-07-23T08:05:21;23.40;97.00
23137;DHT22;11737;50.558;7.258;2022-07-23T08:07:50;23.40;96.60
23137;DHT22;11737;50.558;7.258;2022-07-23T08:10:18;23.50;96.40
23137;DHT22;11737;50.558;7.258;2022-07-23T08:12:48;23.60;96.30
23137;DHT22;11737;50.558;7.258;2022-07-23T08:15:18;23.60;96.20
23137;DHT22;11737;50.558;7.258;2022-07-23T08:17:47;23.60;95.40
23137;DHT22;11737;50.558;7.258;2022-07-23T08:20:17;23.70;95.10
23137;DHT22;11737;50.558;7.258;2022-07-23T08:22:47;23.80;95.20
23137;DHT22;11737;50.558;7.258;2022-07-23T08:25:19;23.90;95.00
23137;DHT22;11737;50.558;7.258;2022-07-23T08:27:45;24.00;94.50
23137;DHT22;11737;50.558;7.258;2022-07-23T08:30:13;24.10;95.10
23137;DHT22;11737;50.558;7.258;2022-07-23T08:32:50;24.10;94.60
23137;DHT22;11737;50.558;7.258;2022-07-23T08:35:22;24.20;92.90
23137;DHT22;11737;50.558;7.258;2022-07-23T08:37:51;24.20;93.80
23137;DHT22;11737;50.558;7.258;2022-07-23T08:40:20;24.20;93.60
23137;DHT22;11737;50.558;7.258;2022-07-23T08:42:49;24.30;93.60
23137;DHT22;11737;50.558;7.258;2022-07-23T08:45:20;24.40;92.90
23137;DHT22;11737;50.558;7.258;2022-07-23T08:47:53;24.40;92.90
23137;DHT22;11737;50.558;7.258;2022-07-23T08:50:22;24.40;92.50
23137;DHT22;11737;50.558;7.258;2022-07-23T08:52:51;24.40;92.80
23137;DHT22;11737;50.558;7.258;2022-07-23T08:55:21;24.50;92.80
23137;DHT22;11737;50.558;7.258;2022-07-23T08:57:52;24.60;92.70
23137;DHT22;11737;50.558;7.258;2022-07-23T09:00:22;24.70;92.60
23137;DHT22;11737;50.558;7.258;2022-07-23T09:02:50;24.70;92.10
23137;DHT22;11737;50.558;7.258;2022-07-23T09:05:19;24.70;92.50
23137;DHT22;11737;50.558;7.258;2022-07-23T09:08:07;24.70;91.60
23137;DHT22;11737;50.558;7.258;2022-07-23T09:13:34;24.80;91.30
23137;DHT22;11737;50.558;7.258;2022-07-23T09:16:20;24.90;90.50
23137;DHT22;11737;50.558;7.258;2022-07-23T09:18:44;24.90;90.50
23137;DHT22;11737;50.558;7.258;2022-07-23T09:21:24;24.90;90.70
23137;DHT22;11737;50.558;7.258;2022-07-23T09:29:10;25.00;90.40
23137;DHT22;11737;50.558;7.258;2022-07-23T09:31:43;25.10;90.40
23137;DHT22;11737;50.558;7.258;2022-07-23T09:34:13;25.20;89.00
23137;DHT22;11737;50.558;7.258;2022-07-23T09:36:41;25.20;89.60
23137;DHT22;11737;50.558;7.258;2022-07-23T09:39:10;25.20;88.90
23137;DHT22;11737;50.558;7.258;2022-07-23T09:41:46;25.20;89.10
23137;DHT22;11737;50.558;7.258;2022-07-23T09:44:19;25.20;90.00
23137;DHT22;11737;50.558;7.258;2022-07-23T09:46:48;25.30;90.40
23137;DHT22;11737;50.558;7.258;2022-07-23T09:49:23;25.40;89.80
23137;DHT22;11737;50.558;7.258;2022-07-23T09:51:57;25.50;88.20
23137;DHT22;11737;50.558;7.258;2022-07-23T09:54:27;25.60;88.70
23137;DHT22;11737;50.558;7.258;2022-07-23T09:56:59;25.60;86.50
23137;DHT22;11737;50.558;7.258;2022-07-23T09:59:29;25.50;85.00
23137;DHT22;11737;50.558;7.258;2022-07-23T10:01:58;25.60;86.80
23137;DHT22;11737;50.558;7.258;2022-07-23T10:07:17;25.70;86.70
23137;DHT22;11737;50.558;7.258;2022-07-23T10:09:45;25.80;85.10
23137;DHT22;11737;50.558;7.258;2022-07-23T10:12:14;25.90;85.80
23137;DHT22;11737;50.558;7.258;2022-07-23T10:14:44;26.00;84.90
23137;DHT22;11737;50.558;7.258;2022-07-23T10:17:12;26.00;84.50
23137;DHT22;11737;50.558;7.258;2022-07-23T10:19:40;26.10;83.30
23137;DHT22;11737;50.558;7.258;2022-07-23T10:22:18;26.10;83.00
23137;DHT22;11737;50.558;7.258;2022-07-23T10:25:07;26.20;83.70
23137;DHT22;11737;50.558;7.258;2022-07-23T10:30:51;26.20;81.50
23137;DHT22;11737;50.558;7.258;2022-07-23T10:36:30;26.30;81.80
23137;DHT22;11737;50.558;7.258;2022-07-23T10:41:02;26.50;79.40
23137;DHT22;11737;50.558;7.258;2022-07-23T10:43:31;26.50;80.80
23137;DHT22;11737;50.558;7.258;2022-07-23T10:46:21;26.50;77.90
23137;DHT22;11737;50.558;7.258;2022-07-23T10:51:37;26.70;76.30
23137;DHT22;11737;50.558;7.258;2022-07-23T10:54:06;26.80;78.50
23137;DHT22;11737;50.558;7.258;2022-07-23T10:59:24;26.90;77.60
23137;DHT22;11737;50.558;7.258;2022-07-23T11:01:52;26.90;72.40
23137;DHT22;11737;50.558;7.258;2022-07-23T11:04:19;26.80;74.50
23137;DHT22;11737;50.558;7.258;2022-07-23T11:09:40;26.80;73.40
23137;DHT22;11737;50.558;7.258;2022-07-23T11:15:07;26.90;74.50
23137;DHT22;11737;50.558;7.258;2022-07-23T11:20:15;27.30;75.10
23137;DHT22;11737;50.558;7.258;2022-07-23T11:28:39;27.50;70.20
23137;DHT22;11737;50.558;7.258;2022-07-23T11:33:16;27.70;72.90
23137;DHT22;11737;50.558;7.258;2022-07-23T11:36:02;27.70;70.30
23137;DHT22;11737;50.558;7.258;2022-07-23T11:38:31;27.80;72.40
23137;DHT22;11737;50.558;7.258;2022-07-23T11:40:59;27.90;71.60
23137;DHT22;11737;50.558;7.258;2022-07-23T11:43:27;27.90;67.70
23137;DHT22;11737;50.558;7.258;2022-07-23T11:45:59;27.90;70.40
23137;DHT22;11737;50.558;7.258;2022-07-23T11:48:29;28.00;70.90
23137;DHT22;11737;50.558;7.258;2022-07-23T11:50:57;28.00;69.60
23137;DHT22;11737;50.558;7.258;2022-07-23T11:53:33;28.10;67.70
23137;DHT22;11737;50.558;7.258;2022-07-23T11:56:09;28.20;70.10
23137;DHT22;11737;50.558;7.258;2022-07-23T11:58:38;28.10;68.10
23137;DHT22;11737;50.558;7.258;2022-07-23T12:01:06;28.10;70.20
23137;DHT22;11737;50.558;7.258;2022-07-23T12:03:33;28.20;69.80
23137;DHT22;11737;50.558;7.258;2022-07-23T12:06:01;28.30;69.10
23137;DHT22;11737;50.558;7.258;2022-07-23T12:08:29;28.40;69.10
23137;DHT22;11737;50.558;7.258;2022-07-23T12:10:57;28.40;69.20
23137;DHT22;11737;50.558;7.258;2022-07-23T12:13:25;28.40;69.90
23137;DHT22;11737;50.558;7.258;2022-07-23T12:15:56;28.50;69.70
23137;DHT22;11737;50.558;7.258;2022-07-23T12:18:26;28.60;67.70
23137;DHT22;11737;50.558;7.258;2022-07-23T12:20:57;28.60;68.00
23137;DHT22;11737;50.558;7.258;2022-07-23T12:23:27;28.70;67.10
23137;DHT22;11737;50.558;7.258;2022-07-23T12:25:55;28.70;67.20
23137;DHT22;11737;50.558;7.258;2022-07-23T12:28:31;28.70;68.00
23137;DHT22;11737;50.558;7.258;2022-07-23T12:31:00;28.70;69.30
23137;DHT22;11737;50.558;7.258;2022-07-23T12:33:39;28.90;68.10
23137;DHT22;11737;50.558;7.258;2022-07-23T12:36:09;29.10;68.50
23137;DHT22;11737;50.558;7.258;2022-07-23T12:38:40;29.10;66.40
23137;DHT22;11737;50.558;7.258;2022-07-23T12:41:09;29.10;68.40
23137;DHT22;11737;50.558;7.258;2022-07-23T12:43:39;29.20;68.80
23137;DHT22;11737;50.558;7.258;2022-07-23T12:46:14;29.30;68.00
23137;DHT22;11737;50.558;7.258;2022-07-23T12:48:51;29.30;67.80
23137;DHT22;11737;50.558;7.258;2022-07-23T12:51:29;29.30;65.80
23137;DHT22;11737;50.558;7.258;2022-07-23T12:54:07;29.20;67.60
23137;DHT22;11737;50.558;7.258;2022-07-23T12:56:37;29.20;67.80
23137;DHT22;11737;50.558;7.258;2022-07-23T12:59:09;29.30;69.30
23137;DHT22;11737;50.558;7.258;2022-07-23T13:01:44;29.40;68.60
23137;DHT22;11737;50.558;7.258;2022-07-23T13:04:22;29.50;66.90
23137;DHT22;11737;50.558;7.258;2022-07-23T13:06:58;29.40;66.60
23137;DHT22;11737;50.558;7.258;2022-07-23T13:09:30;29.40;65.80
23137;DHT22;11737;50.558;7.258;2022-07-23T13:11:59;29.50;66.40
23137;DHT22;11737;50.558;7.258;2022-07-23T13:14:27;29.60;65.80
23137;DHT22;11737;50.558;7.258;2022-07-23T13:16:56;29.70;66.40
23137;DHT22;11737;50.558;7.258;2022-07-23T13:19:23;29.70;63.80
23137;DHT22;11737;50.558;7.258;2022-07-23T13:21:52;29.70;63.30
23137;DHT22;11737;50.558;7.258;2022-07-23T13:24:21;29.70;65.70
23137;DHT22;11737;50.558;7.258;2022-07-23T13:26:49;29.80;65.10
23137;DHT22;11737;50.558;7.258;2022-07-23T13:29:17;29.80;65.20
23137;DHT22;11737;50.558;7.258;2022-07-23T13:31:44;29.90;65.80
23137;DHT22;11737;50.558;7.258;2022-07-23T13:34:12;30.00;66.40
23137;DHT22;11737;50.558;7.258;2022-07-23T13:36:39;30.10;62.70
23137;DHT22;11737;50.558;7.258;2022-07-23T13:39:07;30.20;64.40
23137;DHT22;11737;50.558;7.258;2022-07-23T13:41:34;30.20;60.50
23137;DHT22;11737;50.558;7.258;2022-07-23T13:44:02;30.10;63.10
23137;DHT22;11737;50.558;7.258;2022-07-23T13:46:30;30.20;62.40
23137;DHT22;11737;50.558;7.258;2022-07-23T13:48:57;30.30;64.20
23137;DHT22;11737;50.558;7.258;2022-07-23T13:51:25;30.10;63.00
23137;DHT22;11737;50.558;7.258;2022-07-23T13:53:52;30.20;63.40
23137;DHT22;11737;50.558;7.258;2022-07-23T13:56:21;30.30;64.20
23137;DHT22;11737;50.558;7.258;2022-07-23T13:58:48;30.40;61.90
23137;DHT22;11737;50.558;7.258;2022-07-23T14:01:16;30.30;59.40
23137;DHT22;11737;50.558;7.258;2022-07-23T14:03:43;30.10;60.60
23137;DHT22;11737;50.558;7.258;2022-07-23T14:06:11;30.10;63.70
23137;DHT22;11737;50.558;7.258;2022-07-23T14:08:38;30.30;61.70
23137;DHT22;11737;50.558;7.258;2022-07-23T14:11:06;30.50;61.70
23137;DHT22;11737;50.558;7.258;2022-07-23T14:13:33;30.70;62.60
23137;DHT22;11737;50.558;7.258;2022-07-23T14:16:01;30.80;58.10
23137;DHT22;11737;50.558;7.258;2022-07-23T14:18:28;30.80;60.30
23137;DHT22;11737;50.558;7.258;2022-07-23T14:20:56;30.90;62.60
23137;DHT22;11737;50.558;7.258;2022-07-23T14:23:23;31.20;62.80
23137;DHT22;11737;50.558;7.258;2022-07-23T14:25:51;31.40;58.10
23137;DHT22;11737;50.558;7.258;2022-07-23T14:28:18;31.90;61.60
23137;DHT22;11737;50.558;7.258;2022-07-23T14:30:46;32.30;58.60
23137;DHT22;11737;50.558;7.258;2022-07-23T14:33:13;32.50;57.30
23137;DHT22;11737;50.558;7.258;2022-07-23T14:35:42;32.70;58.20
23137;DHT22;11737;50.558;7.258;2022-07-23T14:38:09;33.20;57.90
23137;DHT22;11737;50.558;7.258;2022-07-23T14:40:37;33.50;52.80
23137;DHT22;11737;50.558;7.258;2022-07-23T14:43:04;33.60;55.60
23137;DHT22;11737;50.558;7.258;2022-07-23T14:45:32;33.80;51.30
23137;DHT22;11737;50.558;7.258;2022-07-23T14:47:59;34.00;54.40
23137;DHT22;11737;50.558;7.258;2022-07-23T14:50:29;34.30;54.70
23137;DHT22;11737;50.558;7.258;2022-07-23T14:52:56;34.40;53.40
23137;DHT22;11737;50.558;7.258;2022-07-23T14:55:24;35.00;53.70
23137;DHT22;11737;50.558;7.258;2022-07-23T14:57:51;35.30;52.30
23137;DHT22;11737;50.558;7.258;2022-07-23T15:00:19;35.80;53.30
23137;DHT22;11737;50.558;7.258;2022-07-23T15:02:46;36.10;52.90
23137;DHT22;11737;50.558;7.258;2022-07-23T15:05:14;36.20;50.70
23137;DHT22;11737;50.558;7.258;2022-07-23T15:07:42;36.00;50.00
23137;DHT22;11737;50.558;7.258;2022-07-23T15:10:09;36.00;50.30
23137;DHT22;11737;50.558;7.258;2022-07-23T15:12:37;35.90;50.20
23137;DHT22;11737;50.558;7.258;2022-07-23T15:15:05;36.10;50.10
23137;DHT22;11737;50.558;7.258;2022-07-23T15:17:33;36.50;47.80
23137;DHT22;11737;50.558;7.258;2022-07-23T15:20:01;36.80;48.50
23137;DHT22;11737;50.558;7.258;2022-07-23T15:22:29;37.10;46.40
23137;DHT22;11737;50.558;7.258;2022-07-23T15:24:56;37.40;47.90
23137;DHT22;11737;50.558;7.258;2022-07-23T15:27:24;37.70;46.40
23137;DHT22;11737;50.558;7.258;2022-07-23T15:29:51;37.80;45.10
23137;DHT22;11737;50.558;7.258;2022-07-23T15:32:19;37.90;45.90
23137;DHT22;11737;50.558;7.258;2022-07-23T15:34:47;38.00;47.40
23137;DHT22;11737;50.558;7.258;2022-07-23T15:37:14;38.40;46.10
23137;DHT22;11737;50.558;7.258;2022-07-23T15:39:42;38.90;45.90
23137;DHT22;11737;50.558;7.258;2022-07-23T15:42:09;39.20;44.00
23137;DHT22;11737;50.558;7.258;2022-07-23T15:44:37;39.30;44.70
23137;DHT22;11737;50.558;7.258;2022-07-23T15:47:04;39.10;41.20
23137;DHT22;11737;50.558;7.258;2022-07-23T15:49:32;39.00;44.10
23137;DHT22;11737;50.558;7.258;2022-07-23T15:52:01;39.00;44.20
23137;DHT22;11737;50.558;7.258;2022-07-23T15:54:28;39.40;43.50
23137;DHT22;11737;50.558;7.258;2022-07-23T15:56:56;39.90;41.40
23137;DHT22;11737;50.558;7.258;2022-07-23T15:59:24;40.40;42.00
23137;DHT22;11737;50.558;7.258;2022-07-23T16:01:51;41.00;41.80
23137;DHT22;11737;50.558;7.258;2022-07-23T16:04:19;41.10;39.00
23137;DHT22;11737;50.558;7.258;2022-07-23T16:06:46;41.20;40.10
23137;DHT22;11737;50.558;7.258;2022-07-23T16:09:14;41.00;38.50
23137;DHT22;11737;50.558;7.258;2022-07-23T16:11:41;40.70;39.60
23137;DHT22;11737;50.558;7.258;2022-07-23T16:14:09;40.30;37.90
23137;DHT22;11737;50.558;7.258;2022-07-23T16:16:36;39.70;38.80
23137;DHT22;11737;50.558;7.258;2022-07-23T16:19:04;39.30;39.70
23137;DHT22;11737;50.558;7.258;2022-07-23T16:21:32;38.80;40.90